Belize, Belize

2:01 PM CST on October 23, 2014 (GMT -0600)
Philip S W Goldson International | Change Station
CLOSE
Current Station
Airport
Location: Belize,
Elevation: 16 ft
Nearby Weather Stations

Elev 16 ft 17.54 °N, 88.31 °W | Updated 1 minute ago

Scattered Clouds
Scattered Clouds
90 °F
Feels Like 105 °F
N
4
Wind Variable Wind from NW

Today
High -- | Low -- °F
--% Chance of Precip.
Yesterday
High -- | Low -- °F
Precip. -- in
5:48 AM 5:26 PM
Waning Crescent, 0% visible
Pressure 29.73 in
Visibility 6.2 miles
Clouds Scattered Clouds 2200 ft
Scattered Clouds 4500 ft
Heat Index 105 °F
Dew Point 79 °F
Humidity 70%
Rainfall 0.00 in
Snow Depth Not available.
UV 7 out of 12
Pollen Not available.
Air Quality Not available.
Flu Activity Not available.
METAR MZBZ 232000Z 32003KT 9999 SCT022 SCT045 32/26 A2973 Q1006 NOSIG

More Conditions Fewer Conditions

Pressure 29.73 in
Visibility 6.2 miles
Clouds Scattered Clouds 2200 ft
Scattered Clouds 4500 ft
Heat Index 105 °F
Dew Point 79 °F
Humidity 70%
Rainfall 0.00 in
Snow Depth Not available.
UV 7 out of 12
Pollen Not available.
Air Quality Not available.
Flu Activity Not available.
METAR MZBZ 232000Z 32003KT 9999 SCT022 SCT045 32/26 A2973 Q1006 NOSIG

More Conditions Fewer Conditions

10-Day Weather Forecast

Almanac

Astronomy

Oct. 23, 2014 Rise Set
Actual Time 5:48 AM CST 5:26 PM CST
Civil Twilight 5:26 AM CST 5:48 PM CST
Nautical Twilight 5:01 AM CST 6:13 PM CST
Astronomical Twilight 4:35 AM CST 6:39 PM CST
Moon 5:31 AM CST 5:27 PM CST
Length of Visible Light 12h 21m
Length of Day
11h 37m
Tomorrow will be 0m 55s shorter.
Waning Crescent, 0% of the Moon is Illuminated
Today
Waning Crescent
Oct 23
New
Oct 30
First Quarter
Nov 6
Full
Nov 14
Last Quarter

Today's Extremes

Country Highs Country Lows

Community

WunderPhotos

Upload Photos

1,764,350 photos uploaded!

WunderBlogs® & News

By Dr. Jeff Masters
Director of Meteorology, Weather Underground
By Kari Strenfel
Meteorologist, Weather Underground
By Christopher C. Burt
Weather Historian, Weather Underground
October 23, 2014
October 23, 2014
October 23, 2014

Nearby

Snow Depth

Not available.

Earthquake Activity

City Distance Mag. Time & Date
No recent earthquake activity has been reported nearby.
Minimum magnitude displayed is 2.5.

Coastal Water Temperatures

Place Temperature
No Stations Reporting

Nearby Weather Stations